Thursday, February 22, 2018, 12:08 PM EST
Back to Local

KMVL, Morrisville Stowe State Airport

Location: Morrisville, VT, United States Lat: 44.533
Local Time: 12:08 PM EST (17:08 GMT) Lon: -72.617
Time Zone: US/Eastern Elev: 731 ft

Show me the last for .
Show Decoded

2018-02-22 10:54 METAR KMVL 221554Z AUTO 01003KT 10SM FEW120 M03/M10 A3069 RMK AO2 SLP405
                 T10281100 =
2018-02-22 09:54 METAR KMVL 221454Z AUTO 36003KT 10SM BKN120 M03/M09 A3068 RMK AO2 SLP403
                 T10331094 50013 =
2018-02-22 08:54 METAR KMVL 221354Z AUTO 03006KT 10SM BKN120 M03/M09 A3069 RMK AO2 SLP403
                 T10331094 =
2018-02-22 07:54 METAR KMVL 221254Z AUTO 36004KT 10SM CLR M03/M09 A3067 RMK AO2 SLP398 T10331089
                 =
2018-02-22 06:54 METAR KMVL 221154Z AUTO 36004KT 10SM CLR M04/M08 A3065 RMK AO2 SLP389 70001
                 T10391083 11011 21039 51009 =
2018-02-22 05:54 METAR KMVL 221054Z AUTO 36004KT 10SM CLR M03/M09 A3064 RMK AO2 SLP386 T10281094
                 =
2018-02-22 04:54 METAR KMVL 220954Z AUTO 34005KT 10SM FEW120 M02/M09 A3063 RMK AO2 SLP380
                 T10221089 =
2018-02-22 03:54 METAR KMVL 220854Z AUTO 34006KT 10SM CLR M02/M08 A3062 RMK AO2 SLP377 T10221083
                 51012 =
2018-02-22 02:54 METAR KMVL 220754Z AUTO VRB05KT 10SM CLR M02/M08 A3061 RMK AO2 SLP374 T10221083
                 =
2018-02-22 01:54 METAR KMVL 220654Z AUTO VRB06KT 10SM CLR M02/M08 A3059 RMK AO2 SLP366 T10171083
                 =
2018-02-22 00:54 METAR KMVL 220554Z AUTO 00000KT 10SM CLR M01/M08 A3058 RMK AO2 SLP362 T10111078
                 10050 21011 51033 =
2018-02-21 23:54 METAR KMVL 220454Z AUTO 34008G15KT 280V360 10SM CLR M01/M07 A3056 RMK AO2 SLP352
                 T10061067 402061006 =
2018-02-21 22:54 METAR KMVL 220354Z AUTO 03005KT 10SM CLR 00/M05 A3051 RMK AO2 SLP338 T00001050 =
2018-02-21 21:54 METAR KMVL 220254Z AUTO 10005KT 10SM CLR 01/M04 A3048 RMK AO2 SLP328 T00111039
                 51036 =
2018-02-21 20:54 METAR KMVL 220154Z AUTO VRB03KT 10SM CLR 02/M03 A3045 RMK AO2 SLP318 T00221033 =
2018-02-21 19:54 METAR KMVL 220054Z AUTO 33010G22KT 10SM BKN100 03/M02 A3041 RMK AO2 SLP303
                 T00331017 =
2018-02-21 18:54 METAR KMVL 212354Z AUTO 33011KT 10SM OVC075 04/01 A3037 RMK AO2 SLP291 60001
                 T00440006 10194 20044 51048 =
2018-02-21 17:54 METAR KMVL 212254Z AUTO 33011G20KT 10SM SCT026 BKN034 OVC065 07/02 A3034 RMK AO2
                 SLP279 T00670017 =
2018-02-21 16:54 METAR KMVL 212154Z AUTO 00000KT 10SM OVC046 08/03 A3029 RMK AO2 SLP260 T00780033
                 =
2018-02-21 15:54 METAR KMVL 212054Z AUTO 01008G15KT 310V040 10SM OVC035 09/04 A3023 RMK AO2
                 PRESRR SLP241 60001 T00890044 53075 =
2018-02-21 15:42 METAR KMVL 212042Z AUTO VRB04G15KT 10SM FEW019 SCT024 OVC037 09/06 A3021 RMK AO2
                 T00890056 =
2018-02-21 15:12 METAR KMVL 212012Z AUTO 34010G19KT 310V010 7SM FEW015 BKN020 OVC046 09/08 A3018
                 RMK AO2 T00890078 =
2018-02-21 14:54 METAR KMVL 211954Z AUTO 33006KT 10SM FEW011 BKN036 OVC044 09/08 A3015 RMK AO2
                 RAE46 PRESRR SLP217 P0001 T00890083 =
2018-02-21 14:46 METAR KMVL 211946Z AUTO 36010G19KT 10SM FEW012 SCT018 OVC039 10/08 A3014 RMK AO2
                 RAE46 P0001 T01000083 =
2018-02-21 14:31 METAR KMVL 211931Z AUTO 35013G21KT 8SM -RA SCT012 BKN020 OVC034 11/09 A3012 RMK
                 AO2 PRESRR P0001 T01060094 =
2018-02-21 13:54 METAR KMVL 211854Z AUTO 35011G30KT 10SM -RA BKN039 OVC048 13/10 A3005 RMK AO2 PK
                 WND 34030/1849 RAB46 SLP182 P0000 T01330100 =
2018-02-21 12:54 METAR KMVL 211754Z AUTO 21011G19KT 10SM FEW050 BKN065 BKN100 19/11 A3000 RMK AO2
                 SLP163 T01940106 10206 20100 55018 =

Support USWX by starting your Amazon purchase here.